Sheridan, WY

11:16 PM MDT on August 27, 2014 (GMT -0600)
Johnson County | Change Station
CLOSE
Current Station
Airport
Location: Buffalo,
Elevation: 4967 ft
Nearby Weather Stations

Elev 4967 ft 44.38 °N, 106.72 °W | Updated 23 minutes ago

Clear
Clear
61 °F
Feels Like 61 °F
N
6
Wind Variable Wind from South

Today
High -- | Low -- °F
--% Chance of Precip.
Yesterday
High -- | Low -- °F
Precip. -- in
6:24 AM 7:53 PM
Waxing Crescent, 6% visible
Pressure 29.99 in
Visibility 10.0 miles
Clouds Clear
Dew Point 54 °F
Humidity 78%
Rainfall 0.15 in
Snow Depth Not available.
UV 0 out of 12
Pollen 8.30 out of 12
Air Quality Not available.
Flu Activity Not available.
METAR KBYG 280453Z AUTO 18005KT 10SM CLR 16/12 A3014 RMK AO2 SLP156 T01610122

More Conditions Fewer Conditions

Pressure 29.99 in
Visibility 10.0 miles
Clouds Clear
Dew Point 54 °F
Humidity 78%
Rainfall 0.15 in
Snow Depth Not available.
UV 0 out of 12
Pollen 8.30 out of 12
Air Quality Not available.
Flu Activity Not available.
METAR KBYG 280453Z AUTO 18005KT 10SM CLR 16/12 A3014 RMK AO2 SLP156 T01610122

More Conditions Fewer Conditions

10-Day Weather Forecast

Almanac

Astronomy

Aug. 27, 2014 Rise Set
Actual Time 6:24 AM MDT 7:53 PM MDT
Civil Twilight 5:53 AM MDT 8:24 PM MDT
Nautical Twilight 5:16 AM MDT 9:00 PM MDT
Astronomical Twilight 4:36 AM MDT 9:40 PM MDT
Moon 8:30 AM MDT (8/27) 8:39 PM MDT (8/27)
Length of Visible Light 14h 30m
Length of Day
13h 29m
Tomorrow will be 2m 56s shorter.
Waxing Crescent, 6% of the Moon is Illuminated
Aug 28
Waxing Crescent
Sep 2
First Quarter
Sep 8
Full
Sep 15
Last Quarter
Sep 24
New

Yesterday's Extremes

State Highs State Lows

Community

WunderPhotos

Upload Photos

1,747,908 photos uploaded!

Nearby

Snow Depth

Station Depth Elevation
Bear Trap Meadow 0 in 8200 ft
Casper Mountain 1 in 7850 ft
Reno Hill 0 in 8500 ft
Base Camp 0 in 7030 ft
Gros Ventre Summit 0 in 8750 ft

Earthquake Activity

City Distance Mag. Time & Date
No recent earthquake activity has been reported nearby.
Minimum magnitude displayed is 2.5.

Coastal Water Temperatures

Place Temperature
No Stations Reporting

Nearby Weather Stations